createdAt,value
2023-01-20T00:01:14.930Z,2.40
2023-01-20T00:03:45.897Z,2.30
2023-01-20T00:06:14.112Z,2.30
2023-01-20T00:08:42.908Z,2.30
2023-01-20T00:11:13.579Z,2.20
2023-01-20T00:13:42.739Z,2.20
2023-01-20T00:16:13.638Z,2.20
2023-01-20T00:18:42.223Z,2.10
2023-01-20T00:21:14.081Z,2.10
2023-01-20T00:23:42.416Z,2.10
2023-01-20T00:26:12.991Z,2.10
2023-01-20T00:28:41.388Z,2.10
2023-01-20T00:31:16.058Z,2.10
2023-01-20T00:33:44.582Z,2.10
2023-01-20T00:36:14.864Z,2.20
2023-01-20T00:38:43.289Z,2.10
2023-01-20T00:41:11.958Z,2.10
2023-01-20T00:43:40.385Z,2.00
2023-01-20T00:46:09.317Z,2.10
2023-01-20T00:48:39.538Z,2.00
2023-01-20T00:51:08.826Z,1.80
2023-01-20T00:53:37.551Z,1.80
2023-01-20T00:56:06.419Z,1.90
2023-01-20T00:58:35.249Z,1.90
2023-01-20T01:01:03.460Z,1.90
2023-01-20T01:03:31.838Z,1.90
2023-01-20T01:06:09.858Z,1.90
2023-01-20T01:08:38.686Z,1.90
2023-01-20T01:11:07.763Z,1.90
2023-01-20T01:13:37.298Z,1.80
2023-01-20T01:16:06.576Z,1.90
2023-01-20T01:18:35.425Z,1.80
2023-01-20T01:21:10.701Z,1.80
2023-01-20T01:23:38.738Z,1.80
2023-01-20T01:26:08.905Z,1.80
2023-01-20T01:28:37.153Z,1.90
2023-01-20T01:31:07.151Z,1.90
2023-01-20T01:33:35.346Z,1.90
2023-01-20T01:36:04.633Z,1.90
2023-01-20T01:38:33.956Z,1.90
2023-01-20T01:41:03.059Z,1.90
2023-01-20T01:43:32.774Z,1.90
2023-01-20T01:46:01.786Z,1.90
2023-01-20T01:48:34.584Z,2.00
2023-01-20T01:51:09.076Z,1.90
2023-01-20T01:53:44.775Z,2.00
2023-01-20T01:56:14.396Z,1.80
2023-01-20T01:58:47.537Z,1.90
2023-01-20T02:01:16.654Z,1.90
2023-01-20T02:04:01.226Z,1.90
2023-01-20T02:06:33.773Z,1.90
2023-01-20T02:09:05.185Z,1.90
2023-01-20T02:11:38.855Z,1.90
2023-01-20T02:14:07.501Z,1.90
2023-01-20T02:16:44.589Z,1.90
2023-01-20T02:19:48.200Z,1.80
2023-01-20T02:22:28.413Z,1.80
2023-01-20T02:25:38.980Z,1.80
2023-01-20T02:29:00.770Z,1.80
2023-01-20T02:32:08.738Z,1.70
2023-01-20T02:34:42.131Z,1.80
2023-01-20T02:37:14.964Z,1.80
2023-01-20T02:39:49.900Z,1.90
2023-01-20T02:42:23.898Z,1.70
2023-01-20T02:44:56.290Z,1.80
2023-01-20T02:47:32.027Z,1.80
2023-01-20T02:50:06.901Z,1.80
2023-01-20T02:52:39.762Z,1.90
2023-01-20T02:55:11.452Z,1.90
2023-01-20T02:57:44.416Z,1.90
2023-01-20T03:00:18.371Z,1.80
2023-01-20T03:02:49.478Z,1.80
2023-01-20T03:05:22.634Z,1.80
2023-01-20T03:07:53.064Z,1.80
2023-01-20T03:10:26.706Z,1.80
2023-01-20T03:12:58.921Z,1.80
2023-01-20T03:15:34.354Z,1.80
2023-01-20T03:18:02.421Z,1.80
2023-01-20T03:20:32.183Z,1.80
2023-01-20T03:23:00.307Z,1.90
2023-01-20T03:25:29.222Z,1.90
2023-01-20T03:27:57.218Z,1.90
2023-01-20T03:30:26.185Z,1.90
2023-01-20T03:32:54.534Z,1.90
2023-01-20T03:35:23.031Z,1.90
2023-01-20T03:37:52.513Z,1.90
2023-01-20T03:40:20.760Z,1.90
2023-01-20T03:42:59.283Z,1.90
2023-01-20T03:45:36.034Z,2.00
2023-01-20T03:48:12.726Z,2.00
2023-01-20T03:50:46.659Z,1.90
2023-01-20T03:53:23.962Z,1.90
2023-01-20T03:55:58.513Z,1.90
2023-01-20T03:58:31.153Z,1.90
2023-01-20T04:01:01.023Z,1.80
2023-01-20T04:03:32.097Z,1.80
2023-01-20T04:06:02.405Z,1.80
2023-01-20T04:08:35.322Z,1.60
2023-01-20T04:11:07.765Z,1.70
2023-01-20T04:13:36.776Z,1.70
2023-01-20T04:16:10.281Z,1.40
2023-01-20T04:18:42.892Z,1.60
2023-01-20T04:21:15.707Z,1.70
2023-01-20T04:23:50.454Z,1.70
2023-01-20T04:26:18.417Z,1.80
2023-01-20T04:28:46.395Z,1.80
2023-01-20T04:31:32.673Z,1.80
2023-01-20T04:34:00.665Z,1.80
2023-01-20T04:36:28.800Z,1.80
2023-01-20T04:38:58.341Z,1.80
2023-01-20T04:41:27.783Z,1.80
2023-01-20T04:43:58.659Z,1.80
2023-01-20T04:46:26.763Z,1.80
2023-01-20T04:48:55.215Z,1.80
2023-01-20T04:51:23.257Z,1.70
2023-01-20T04:53:51.764Z,1.80
2023-01-20T04:56:21.492Z,1.80
2023-01-20T04:58:49.995Z,1.70
2023-01-20T05:01:18.451Z,1.60
2023-01-20T05:03:46.596Z,1.70
2023-01-20T05:06:14.812Z,1.80
2023-01-20T05:08:42.867Z,1.80
2023-01-20T05:11:11.082Z,1.80
2023-01-20T05:13:41.393Z,1.80
2023-01-20T05:16:24.290Z,1.80
2023-01-20T05:18:52.565Z,1.80
2023-01-20T05:21:20.679Z,1.80
2023-01-20T05:23:48.696Z,1.90
2023-01-20T05:26:17.929Z,1.80
2023-01-20T05:28:47.448Z,1.80
2023-01-20T05:31:15.687Z,1.80
2023-01-20T05:33:44.205Z,1.80
2023-01-20T05:36:13.255Z,1.80
2023-01-20T05:38:41.230Z,1.80
2023-01-20T05:41:11.483Z,1.80
2023-01-20T05:43:40.080Z,1.80
2023-01-20T05:46:09.615Z,1.90
2023-01-20T05:48:37.998Z,1.90
2023-01-20T05:51:06.963Z,1.90
2023-01-20T05:53:35.323Z,1.90
2023-01-20T05:56:04.608Z,1.90
2023-01-20T05:58:35.837Z,1.90
2023-01-20T06:01:07.842Z,2.00
2023-01-20T06:03:37.329Z,1.90
2023-01-20T06:06:07.478Z,2.00
2023-01-20T06:08:35.895Z,2.00
2023-01-20T06:11:04.717Z,2.00
2023-01-20T06:13:32.845Z,1.90
2023-01-20T06:16:00.866Z,1.90
2023-01-20T06:18:30.183Z,2.00
2023-01-20T06:21:00.307Z,2.10
2023-01-20T06:23:28.839Z,2.20
2023-01-20T06:26:01.774Z,2.20
2023-01-20T06:28:30.114Z,2.10
2023-01-20T06:31:02.821Z,2.00
2023-01-20T06:33:31.465Z,1.90
2023-01-20T06:36:01.010Z,1.90
2023-01-20T06:38:31.678Z,2.10
2023-01-20T06:41:00.430Z,2.10
2023-01-20T06:43:31.157Z,2.20
2023-01-20T06:46:04.611Z,2.20
2023-01-20T06:48:33.302Z,2.10
2023-01-20T06:51:06.693Z,1.90
2023-01-20T06:53:35.273Z,1.80
2023-01-20T06:56:03.656Z,2.00
2023-01-20T06:58:33.130Z,2.10
2023-01-20T07:01:08.797Z,2.20
2023-01-20T07:03:37.459Z,2.20
2023-01-20T07:06:15.990Z,2.20
2023-01-20T07:08:44.381Z,2.20
2023-01-20T07:11:12.399Z,2.20
2023-01-20T07:13:40.808Z,2.30
2023-01-20T07:16:11.127Z,2.20
2023-01-20T07:18:41.489Z,2.20
2023-01-20T07:21:13.061Z,2.20
2023-01-20T07:23:41.235Z,2.00
2023-01-20T07:26:11.470Z,2.10
2023-01-20T07:28:40.129Z,2.00
2023-01-20T07:31:10.392Z,2.10
2023-01-20T07:33:39.836Z,2.10
2023-01-20T07:36:09.540Z,2.20
2023-01-20T07:38:39.497Z,2.20
2023-01-20T07:41:10.892Z,2.20
2023-01-20T07:43:39.363Z,2.30
2023-01-20T07:46:07.361Z,2.30
2023-01-20T07:48:35.606Z,2.20
2023-01-20T07:51:06.077Z,2.30
2023-01-20T07:53:36.583Z,2.30
2023-01-20T07:56:07.913Z,2.30
2023-01-20T07:58:36.393Z,2.20
2023-01-20T08:01:09.126Z,2.20
2023-01-20T08:03:37.537Z,2.20
2023-01-20T08:06:05.845Z,2.10
2023-01-20T08:08:34.594Z,2.20
2023-01-20T08:11:03.585Z,2.20
2023-01-20T08:13:33.765Z,2.30
2023-01-20T08:16:03.972Z,2.20
2023-01-20T08:18:32.984Z,2.20
2023-01-20T08:21:01.109Z,2.30
2023-01-20T08:23:29.435Z,2.30
2023-01-20T08:25:59.929Z,2.30
2023-01-20T08:28:28.998Z,2.20
2023-01-20T08:31:05.049Z,2.30
2023-01-20T08:33:33.096Z,2.30
2023-01-20T08:36:06.187Z,2.30
2023-01-20T08:38:34.298Z,2.30
2023-01-20T08:41:02.470Z,2.20
2023-01-20T08:43:30.432Z,2.20
2023-01-20T08:46:03.599Z,2.20
2023-01-20T08:48:31.559Z,2.20
2023-01-20T08:50:59.924Z,2.20
2023-01-20T08:53:27.937Z,2.10
2023-01-20T08:55:57.688Z,2.10
2023-01-20T08:58:26.202Z,2.20
2023-01-20T09:00:54.384Z,2.20
2023-01-20T09:03:26.646Z,2.20
2023-01-20T09:05:54.653Z,2.20
2023-01-20T09:08:26.954Z,2.20
2023-01-20T09:10:57.518Z,2.30
2023-01-20T09:13:25.729Z,2.20
2023-01-20T09:15:54.261Z,2.30
2023-01-20T09:18:23.684Z,2.30
2023-01-20T09:20:51.757Z,2.30
2023-01-20T09:23:19.812Z,2.40
2023-01-20T09:25:47.760Z,2.40
2023-01-20T09:28:15.924Z,2.40
2023-01-20T09:30:44.329Z,2.40
2023-01-20T09:33:13.004Z,2.40
2023-01-20T09:35:42.420Z,2.40
2023-01-20T09:38:31.335Z,2.40
2023-01-20T09:41:33.017Z,2.50
2023-01-20T09:44:15.670Z,2.50
2023-01-20T09:47:17.307Z,2.50
2023-01-20T09:50:14.737Z,2.50
2023-01-20T09:53:03.811Z,2.60
2023-01-20T09:55:41.001Z,2.60
2023-01-20T09:58:16.751Z,2.60
2023-01-20T10:00:50.712Z,2.60
2023-01-20T10:03:23.594Z,2.70
2023-01-20T10:05:55.795Z,2.70
2023-01-20T10:08:34.061Z,2.80
2023-01-20T10:11:08.047Z,2.90
2023-01-20T10:13:47.167Z,3.00
2023-01-20T10:16:29.093Z,3.10
2023-01-20T10:19:01.454Z,3.20
2023-01-20T10:21:35.671Z,3.10
2023-01-20T10:24:11.441Z,3.20
2023-01-20T10:26:47.494Z,3.30
2023-01-20T10:29:22.824Z,3.40
2023-01-20T10:31:58.685Z,3.40
2023-01-20T10:34:30.358Z,3.50
2023-01-20T10:37:06.047Z,3.40
2023-01-20T10:39:44.463Z,3.50
2023-01-20T10:42:14.314Z,3.60
2023-01-20T10:44:43.169Z,3.60
2023-01-20T10:47:33.722Z,3.50
2023-01-20T10:50:40.546Z,3.50
2023-01-20T10:53:24.957Z,3.60
2023-01-20T10:56:05.173Z,3.70
2023-01-20T10:58:36.807Z,3.70
2023-01-20T11:01:08.964Z,3.60
2023-01-20T11:03:40.649Z,3.70
2023-01-20T11:06:11.989Z,3.80
2023-01-20T11:08:39.991Z,3.80
2023-01-20T11:11:16.145Z,3.80
2023-01-20T11:13:44.201Z,3.80
2023-01-20T11:16:17.318Z,3.90
2023-01-20T11:18:57.245Z,4.00
2023-01-20T11:21:26.913Z,4.00
2023-01-20T11:23:56.932Z,4.00
2023-01-20T11:26:28.632Z,4.00
2023-01-20T11:28:58.933Z,4.00
2023-01-20T11:31:38.616Z,4.00
2023-01-20T11:34:22.162Z,4.00
2023-01-20T11:36:50.825Z,4.10
2023-01-20T11:39:28.229Z,4.10
2023-01-20T11:44:51.306Z,4.10
2023-01-20T11:47:24.625Z,4.10
2023-01-20T11:50:20.903Z,4.20
2023-01-20T11:52:49.355Z,4.20
2023-01-20T11:55:19.200Z,4.20
2023-01-20T11:57:50.850Z,4.20
2023-01-20T12:00:38.911Z,4.30
2023-01-20T12:03:32.680Z,4.20
2023-01-20T12:06:04.957Z,4.20
2023-01-20T12:08:43.654Z,4.20
2023-01-20T12:11:16.404Z,4.20
2023-01-20T12:14:15.163Z,4.20
2023-01-20T12:16:47.856Z,4.20
2023-01-20T12:19:20.047Z,4.30
2023-01-20T12:21:53.227Z,4.30
2023-01-20T12:24:38.694Z,4.40
2023-01-20T12:27:21.397Z,4.50
2023-01-20T12:29:55.835Z,4.50
2023-01-20T12:32:25.254Z,4.50
2023-01-20T12:34:53.352Z,4.60
2023-01-20T12:37:30.407Z,4.60
2023-01-20T12:40:07.371Z,4.60
2023-01-20T12:43:07.253Z,4.60
2023-01-20T12:45:49.998Z,4.60
2023-01-20T12:48:36.861Z,4.60
2023-01-20T12:51:20.332Z,4.60
2023-01-20T12:54:11.866Z,4.70
2023-01-20T12:56:48.053Z,4.60
2023-01-20T12:59:28.228Z,4.70
2023-01-20T13:02:19.594Z,4.60
2023-01-20T13:05:21.800Z,4.60
2023-01-20T13:07:58.117Z,4.60
2023-01-20T13:10:51.113Z,4.60
2023-01-20T13:13:31.069Z,4.70
2023-01-20T13:16:05.069Z,4.70
2023-01-20T13:18:42.872Z,4.70
2023-01-20T13:21:18.813Z,4.70
2023-01-20T13:23:48.180Z,4.70
2023-01-20T13:26:17.678Z,4.70
2023-01-20T13:28:53.204Z,4.80
2023-01-20T13:31:34.162Z,4.70
2023-01-20T13:34:39.590Z,4.70
2023-01-20T13:37:31.860Z,4.80
2023-01-20T13:40:01.216Z,4.80
2023-01-20T13:42:32.145Z,4.90
2023-01-20T13:45:19.261Z,4.80
2023-01-20T13:47:54.697Z,4.80
2023-01-20T13:50:25.280Z,4.90
2023-01-20T13:53:25.123Z,4.90
2023-01-20T13:56:03.890Z,4.90
2023-01-20T13:58:33.536Z,5.00
2023-01-20T14:01:04.303Z,5.00
2023-01-20T14:03:35.099Z,5.00
2023-01-20T14:06:06.031Z,5.00
2023-01-20T14:08:40.060Z,5.00
2023-01-20T14:11:12.585Z,5.00
2023-01-20T14:13:41.533Z,5.00
2023-01-20T14:16:20.241Z,5.00
2023-01-20T14:18:49.391Z,5.00
2023-01-20T14:21:21.506Z,5.00
2023-01-20T14:23:51.306Z,5.00
2023-01-20T14:26:25.649Z,5.00
2023-01-20T14:28:55.437Z,5.00
2023-01-20T14:31:37.584Z,4.90
2023-01-20T14:34:23.043Z,4.90
2023-01-20T14:36:51.543Z,4.90
2023-01-20T14:39:23.275Z,4.80
2023-01-20T14:41:52.909Z,4.80
2023-01-20T14:44:23.049Z,4.80
2023-01-20T14:46:53.013Z,4.80
2023-01-20T14:49:23.692Z,4.80
2023-01-20T14:51:52.914Z,4.80
2023-01-20T14:54:36.678Z,4.80
2023-01-20T14:57:29.037Z,4.80
2023-01-20T15:00:17.041Z,4.70
2023-01-20T15:02:57.998Z,4.80
2023-01-20T15:05:38.424Z,4.80
2023-01-20T15:08:26.435Z,4.80
2023-01-20T15:11:31.393Z,4.70
2023-01-20T15:14:13.636Z,4.70
2023-01-20T15:16:53.558Z,4.70
2023-01-20T15:19:33.228Z,4.80
2023-01-20T15:22:20.522Z,4.80
2023-01-20T15:24:49.567Z,4.80
2023-01-20T15:27:33.743Z,4.80
2023-01-20T15:30:05.200Z,4.80
2023-01-20T15:32:33.304Z,4.80
2023-01-20T15:35:01.400Z,4.80
2023-01-20T15:37:29.405Z,4.70
2023-01-20T15:39:59.670Z,4.70
2023-01-20T15:42:28.376Z,4.70
2023-01-20T15:44:57.799Z,4.80
2023-01-20T15:47:38.156Z,4.80
2023-01-20T15:50:13.834Z,4.80
2023-01-20T15:52:41.892Z,4.90
2023-01-20T15:55:13.047Z,4.80
2023-01-20T15:57:42.067Z,4.80
2023-01-20T16:00:20.278Z,4.80
2023-01-20T16:02:48.314Z,4.70
2023-01-20T16:05:17.760Z,4.70
2023-01-20T16:07:47.675Z,4.80
2023-01-20T16:10:17.703Z,4.80
2023-01-20T16:12:46.160Z,4.80
2023-01-20T16:15:18.244Z,4.70
2023-01-20T16:17:46.509Z,4.70
2023-01-20T16:20:21.976Z,4.70
2023-01-20T16:22:50.159Z,4.70
2023-01-20T16:25:19.161Z,4.60
2023-01-20T16:27:47.149Z,4.60
2023-01-20T16:30:19.612Z,4.60
2023-01-20T16:32:47.623Z,4.50
2023-01-20T16:35:16.722Z,4.50
2023-01-20T16:37:46.505Z,4.50
2023-01-20T16:40:16.238Z,4.50
2023-01-20T16:42:44.401Z,4.50
2023-01-20T16:45:22.828Z,4.50
2023-01-20T16:47:51.342Z,4.50
2023-01-20T16:50:19.777Z,4.40
2023-01-20T16:52:48.216Z,4.40
2023-01-20T16:55:17.049Z,4.40
2023-01-20T16:57:45.251Z,4.30
2023-01-20T17:00:17.407Z,4.30
2023-01-20T17:02:52.352Z,4.40
2023-01-20T17:05:22.647Z,4.30
2023-01-20T17:07:50.813Z,4.30
2023-01-20T17:10:19.901Z,4.40
2023-01-20T17:12:49.508Z,4.40
2023-01-20T17:15:17.582Z,4.30
2023-01-20T17:17:49.424Z,4.40
2023-01-20T17:20:19.193Z,4.30
2023-01-20T17:22:47.137Z,4.30
2023-01-20T17:25:17.941Z,4.30
2023-01-20T17:27:46.346Z,4.30
2023-01-20T17:30:15.496Z,4.30
2023-01-20T17:32:47.245Z,4.20
2023-01-20T17:35:16.715Z,4.20
2023-01-20T17:37:49.246Z,4.30
2023-01-20T17:40:18.193Z,4.30
2023-01-20T17:42:46.685Z,4.20
2023-01-20T17:45:14.774Z,4.30
2023-01-20T17:47:42.780Z,4.20
2023-01-20T17:50:12.018Z,4.10
2023-01-20T17:52:40.095Z,4.20
2023-01-20T17:55:10.655Z,4.20
2023-01-20T17:57:38.634Z,4.10
2023-01-20T18:00:07.875Z,4.10
2023-01-20T18:02:35.886Z,4.10
2023-01-20T18:05:04.117Z,4.10
2023-01-20T18:07:32.107Z,4.00
2023-01-20T18:10:00.139Z,4.00
2023-01-20T18:12:29.485Z,3.80
2023-01-20T18:14:58.688Z,3.80
2023-01-20T18:17:26.882Z,3.80
2023-01-20T18:19:55.181Z,3.80
2023-01-20T18:22:23.255Z,3.80
2023-01-20T18:24:51.306Z,3.70
2023-01-20T18:27:19.588Z,3.60
2023-01-20T18:29:50.241Z,3.70
2023-01-20T18:32:18.319Z,3.70
2023-01-20T18:34:46.367Z,3.80
2023-01-20T18:37:14.328Z,3.60
2023-01-20T18:39:42.539Z,3.70
2023-01-20T18:42:10.542Z,3.70
2023-01-20T18:44:38.537Z,3.60
2023-01-20T18:47:07.923Z,3.60
2023-01-20T18:49:35.924Z,3.60
2023-01-20T18:52:04.107Z,3.50
2023-01-20T18:54:34.309Z,3.50
2023-01-20T18:57:03.302Z,3.60
2023-01-20T18:59:31.607Z,3.50
2023-01-20T19:01:59.769Z,3.40
2023-01-20T19:04:29.926Z,3.30
2023-01-20T19:06:57.944Z,3.30
2023-01-20T19:09:28.403Z,3.30
2023-01-20T19:11:56.474Z,3.20
2023-01-20T19:14:24.581Z,3.10
2023-01-20T19:16:52.581Z,3.20
2023-01-20T19:19:20.567Z,3.30
2023-01-20T19:21:52.939Z,3.20
2023-01-20T19:24:22.386Z,3.10
2023-01-20T19:26:50.416Z,3.20
2023-01-20T19:29:18.983Z,3.20
2023-01-20T19:31:47.535Z,3.20
2023-01-20T19:34:16.263Z,3.30
2023-01-20T19:36:44.327Z,3.30
2023-01-20T19:39:13.851Z,3.30
2023-01-20T19:41:41.872Z,3.20
2023-01-20T19:44:13.454Z,3.10
2023-01-20T19:46:41.655Z,3.20
2023-01-20T19:49:11.411Z,3.20
2023-01-20T19:51:39.901Z,3.20
2023-01-20T19:54:08.663Z,3.10
2023-01-20T19:56:38.038Z,3.20
2023-01-20T19:59:06.976Z,3.10
2023-01-20T20:01:37.003Z,3.10
2023-01-20T20:04:07.380Z,3.10
2023-01-20T20:06:36.554Z,3.00
2023-01-20T20:09:06.306Z,3.10
2023-01-20T20:11:35.052Z,3.10
2023-01-20T20:14:06.482Z,3.00
2023-01-20T20:16:36.512Z,3.00
2023-01-20T20:19:05.553Z,3.00
2023-01-20T20:21:34.152Z,3.00
2023-01-20T20:24:02.689Z,3.00
2023-01-20T20:26:33.460Z,3.00
2023-01-20T20:29:02.852Z,3.00
2023-01-20T20:31:32.541Z,2.90
2023-01-20T20:34:01.703Z,2.90
2023-01-20T20:36:32.208Z,2.90
2023-01-20T20:39:01.202Z,2.80
2023-01-20T20:41:31.609Z,2.80
2023-01-20T20:44:00.705Z,2.70
2023-01-20T20:46:29.390Z,2.70
2023-01-20T20:49:00.772Z,2.70
2023-01-20T20:51:31.630Z,2.60
2023-01-20T20:54:01.451Z,2.60
2023-01-20T20:56:32.783Z,2.50
2023-01-20T20:59:03.342Z,2.60
2023-01-20T21:01:34.178Z,2.50
2023-01-20T21:04:04.675Z,2.50
2023-01-20T21:06:33.790Z,2.40
2023-01-20T21:09:03.630Z,2.40
2023-01-20T21:11:31.710Z,2.40
2023-01-20T21:14:00.009Z,2.40
2023-01-20T21:16:28.393Z,2.40
2023-01-20T21:18:57.419Z,2.40
2023-01-20T21:21:28.931Z,2.30
2023-01-20T21:23:58.935Z,2.30
2023-01-20T21:26:30.244Z,2.30
2023-01-20T21:29:01.668Z,2.30
2023-01-20T21:31:31.451Z,2.30
2023-01-20T21:34:00.626Z,2.30
2023-01-20T21:36:31.424Z,2.30
2023-01-20T21:39:00.027Z,2.30
2023-01-20T21:41:28.236Z,2.20
2023-01-20T21:44:13.883Z,2.10
2023-01-20T21:46:41.965Z,2.10
2023-01-20T21:49:27.835Z,2.10
2023-01-20T21:52:15.025Z,2.20
2023-01-20T21:54:45.126Z,2.20
2023-01-20T21:57:13.597Z,2.20
2023-01-20T21:59:41.579Z,2.00
2023-01-20T22:02:09.743Z,2.00
2023-01-20T22:04:39.653Z,2.10
2023-01-20T22:07:09.233Z,2.10
2023-01-20T22:09:37.215Z,2.00
2023-01-20T22:12:05.882Z,2.10
2023-01-20T22:14:33.901Z,2.10
2023-01-20T22:17:01.897Z,2.10
2023-01-20T22:19:30.033Z,2.00
2023-01-20T22:21:57.963Z,2.00
2023-01-20T22:24:29.717Z,2.10
2023-01-20T22:26:58.121Z,2.10
2023-01-20T22:29:26.343Z,2.10
2023-01-20T22:31:55.782Z,2.10
2023-01-20T22:34:24.037Z,2.00
2023-01-20T22:36:51.980Z,1.90
2023-01-20T22:39:20.027Z,1.90
2023-01-20T22:41:49.432Z,1.90
2023-01-20T22:44:17.537Z,1.80
2023-01-20T22:46:45.721Z,1.80
2023-01-20T22:49:13.923Z,1.70
2023-01-20T22:51:42.104Z,1.80
2023-01-20T22:54:11.799Z,1.90
2023-01-20T22:56:40.159Z,1.80
2023-01-20T22:59:11.211Z,1.90
2023-01-20T23:01:39.226Z,1.90
2023-01-20T23:04:08.008Z,1.80
2023-01-20T23:06:37.411Z,1.90
2023-01-20T23:09:08.167Z,1.90
2023-01-20T23:11:38.315Z,1.90
2023-01-20T23:14:06.772Z,1.90
2023-01-20T23:16:36.234Z,1.90
2023-01-20T23:19:04.345Z,1.90
2023-01-20T23:21:32.818Z,1.80
2023-01-20T23:24:00.886Z,1.80
2023-01-20T23:26:30.768Z,1.70
2023-01-20T23:28:58.799Z,1.70
2023-01-20T23:31:28.707Z,1.70
2023-01-20T23:33:58.095Z,1.60
2023-01-20T23:36:27.363Z,1.60
2023-01-20T23:38:56.700Z,1.70
2023-01-20T23:41:25.459Z,1.70
2023-01-20T23:43:53.551Z,1.70
2023-01-20T23:46:21.918Z,1.70
2023-01-20T23:48:49.931Z,1.70
2023-01-20T23:51:19.405Z,1.70
2023-01-20T23:53:47.493Z,1.70
2023-01-20T23:56:17.946Z,1.70
2023-01-20T23:58:46.242Z,1.40
